createdAt,value
2022-10-29T00:01:20.107Z,70.30
2022-10-29T00:03:48.409Z,70.20
2022-10-29T00:06:19.839Z,70.40
2022-10-29T00:08:46.583Z,70.40
2022-10-29T00:11:15.992Z,70.40
2022-10-29T00:13:50.279Z,70.60
2022-10-29T00:16:21.295Z,70.60
2022-10-29T00:18:48.090Z,70.50
2022-10-29T00:21:17.927Z,70.50
2022-10-29T00:23:44.724Z,70.50
2022-10-29T00:26:17.213Z,70.40
2022-10-29T00:28:47.694Z,70.40
2022-10-29T00:31:20.231Z,70.50
2022-10-29T00:33:49.928Z,70.60
2022-10-29T00:36:24.478Z,70.40
2022-10-29T00:38:51.413Z,70.30
2022-10-29T00:41:21.604Z,70.10
2022-10-29T00:44:14.934Z,70.20
2022-10-29T00:46:47.763Z,70.30
2022-10-29T00:49:16.551Z,70.50
2022-10-29T00:51:51.272Z,69.90
2022-10-29T00:54:21.591Z,69.90
2022-10-29T00:56:53.600Z,69.70
2022-10-29T00:59:23.286Z,69.80
2022-10-29T01:01:50.181Z,69.70
2022-10-29T01:04:20.975Z,70.00
2022-10-29T01:06:48.471Z,70.00
2022-10-29T01:09:15.138Z,70.00
2022-10-29T01:12:08.858Z,70.00
2022-10-29T01:15:06.034Z,70.20
2022-10-29T01:17:54.084Z,70.30
2022-10-29T01:20:34.118Z,70.70
2022-10-29T01:23:19.659Z,69.90
2022-10-29T01:26:30.761Z,70.30
2022-10-29T01:29:18.351Z,70.60
2022-10-29T01:31:44.942Z,70.10
2022-10-29T01:34:35.801Z,70.00
2022-10-29T01:37:14.899Z,70.40
2022-10-29T01:40:02.831Z,70.50
2022-10-29T01:42:46.451Z,70.60
2022-10-29T01:45:29.348Z,70.50
2022-10-29T01:48:04.376Z,70.40
2022-10-29T01:50:36.347Z,70.10
2022-10-29T01:53:04.734Z,70.00
2022-10-29T01:55:38.627Z,70.50
2022-10-29T01:58:07.058Z,69.80
2022-10-29T02:01:01.039Z,69.80
2022-10-29T02:03:58.544Z,70.00
2022-10-29T02:06:48.841Z,69.90
2022-10-29T02:09:31.505Z,69.90
2022-10-29T02:12:07.990Z,69.70
2022-10-29T02:14:54.946Z,69.60
2022-10-29T02:17:24.593Z,69.90
2022-10-29T02:19:52.208Z,69.80
2022-10-29T02:22:21.328Z,69.80
2022-10-29T02:24:49.033Z,69.70
2022-10-29T02:27:16.924Z,69.90
2022-10-29T02:29:44.764Z,69.90
2022-10-29T02:32:11.450Z,70.00
2022-10-29T02:34:40.969Z,70.00
2022-10-29T02:37:07.603Z,70.00
2022-10-29T02:39:37.175Z,70.10
2022-10-29T02:42:06.357Z,70.20
2022-10-29T02:44:32.946Z,70.20
2022-10-29T02:47:00.726Z,70.30
2022-10-29T02:49:27.992Z,70.40
2022-10-29T02:51:56.156Z,70.40
2022-10-29T02:54:22.854Z,70.50
2022-10-29T02:56:49.512Z,70.40
2022-10-29T02:59:16.140Z,70.50
2022-10-29T03:01:43.889Z,70.50
2022-10-29T03:04:11.555Z,70.70
2022-10-29T03:06:39.851Z,70.70
2022-10-29T03:09:06.732Z,70.80
2022-10-29T03:11:33.535Z,70.90
2022-10-29T03:14:02.804Z,71.00
2022-10-29T03:16:29.450Z,71.00
2022-10-29T03:18:56.086Z,71.00
2022-10-29T03:21:31.599Z,71.10
2022-10-29T03:23:58.237Z,71.10
2022-10-29T03:26:36.426Z,71.00
2022-10-29T03:29:03.163Z,71.00
2022-10-29T03:31:43.182Z,70.80
2022-10-29T03:34:09.813Z,70.70
2022-10-29T03:36:38.638Z,70.80
2022-10-29T03:39:05.319Z,70.80
2022-10-29T03:41:38.797Z,70.80
2022-10-29T03:44:05.566Z,71.00
2022-10-29T03:46:32.881Z,71.20
2022-10-29T03:48:59.553Z,71.20
2022-10-29T03:51:31.612Z,71.30
2022-10-29T03:54:02.026Z,71.30
2022-10-29T03:56:28.675Z,71.50
2022-10-29T03:58:55.427Z,71.40
2022-10-29T04:01:22.385Z,71.40
2022-10-29T04:03:51.893Z,71.40
2022-10-29T04:06:20.754Z,71.40
2022-10-29T04:08:52.275Z,72.10
2022-10-29T04:11:22.323Z,71.30
2022-10-29T04:13:52.770Z,71.20
2022-10-29T04:16:21.579Z,71.20
2022-10-29T04:18:53.745Z,71.00
2022-10-29T04:29:48.101Z,70.70
2022-10-29T04:32:16.630Z,70.60
2022-10-29T04:34:45.060Z,70.70
2022-10-29T04:37:14.008Z,70.90
2022-10-29T04:39:43.096Z,70.90
2022-10-29T04:42:09.742Z,71.20
2022-10-29T04:44:38.490Z,71.20
2022-10-29T04:47:06.275Z,71.20
2022-10-29T04:49:33.040Z,71.20
2022-10-29T04:52:02.571Z,71.10
2022-10-29T04:54:33.903Z,71.00
2022-10-29T04:57:00.529Z,71.00
2022-10-29T04:59:27.254Z,70.90
2022-10-29T05:01:56.771Z,70.90
2022-10-29T05:04:25.686Z,71.10
2022-10-29T05:06:54.881Z,71.00
2022-10-29T05:09:21.509Z,71.10
2022-10-29T05:11:48.138Z,71.30
2022-10-29T05:14:17.017Z,72.10
2022-10-29T05:16:43.673Z,71.70
2022-10-29T05:19:10.299Z,71.80
2022-10-29T05:21:36.936Z,72.00
2022-10-29T05:24:09.560Z,72.00
2022-10-29T05:26:38.964Z,72.10
2022-10-29T05:29:07.891Z,72.30
2022-10-29T05:31:39.207Z,72.30
2022-10-29T05:34:08.170Z,73.10
2022-10-29T05:36:36.940Z,72.50
2022-10-29T05:39:08.103Z,72.60
2022-10-29T05:41:35.969Z,72.60
2022-10-29T05:44:07.724Z,72.60
2022-10-29T05:46:36.596Z,72.70
2022-10-29T05:49:03.826Z,72.50
2022-10-29T05:51:30.834Z,72.40
2022-10-29T05:54:01.645Z,72.30
2022-10-29T05:56:35.714Z,72.30
2022-10-29T05:59:02.632Z,72.30
2022-10-29T06:01:31.766Z,72.30
2022-10-29T06:04:01.122Z,72.30
2022-10-29T06:06:28.306Z,72.40
2022-10-29T06:08:58.947Z,72.50
2022-10-29T06:11:28.005Z,72.50
2022-10-29T06:13:55.962Z,72.50
2022-10-29T06:16:22.813Z,72.50
2022-10-29T06:18:54.662Z,72.50
2022-10-29T06:21:23.320Z,72.50
2022-10-29T06:23:53.929Z,73.10
2022-10-29T06:26:23.392Z,72.60
2022-10-29T06:28:49.989Z,72.60
2022-10-29T06:31:16.608Z,72.60
2022-10-29T06:33:43.264Z,72.60
2022-10-29T06:36:12.463Z,72.70
2022-10-29T06:38:39.029Z,72.70
2022-10-29T06:41:05.871Z,72.80
2022-10-29T06:43:32.520Z,72.80
2022-10-29T06:45:59.171Z,72.90
2022-10-29T06:48:25.763Z,72.90
2022-10-29T06:50:52.651Z,73.00
2022-10-29T06:53:20.108Z,73.00
2022-10-29T06:55:46.757Z,73.10
2022-10-29T06:58:18.624Z,73.10
2022-10-29T07:00:45.805Z,73.30
2022-10-29T07:03:14.119Z,73.10
2022-10-29T07:05:40.723Z,73.10
2022-10-29T07:08:07.415Z,73.10
2022-10-29T07:10:34.506Z,73.20
2022-10-29T07:13:01.270Z,73.20
2022-10-29T07:15:30.673Z,73.10
2022-10-29T07:18:06.456Z,73.10
2022-10-29T07:20:35.227Z,73.20
2022-10-29T07:23:02.169Z,73.00
2022-10-29T07:25:29.568Z,72.90
2022-10-29T07:28:03.564Z,72.80
2022-10-29T07:30:30.413Z,73.00
2022-10-29T07:32:57.043Z,72.90
2022-10-29T07:35:26.751Z,72.90
2022-10-29T07:37:57.975Z,73.00
2022-10-29T07:40:24.854Z,73.10
2022-10-29T07:42:55.339Z,73.10
2022-10-29T07:45:22.537Z,73.40
2022-10-29T07:47:52.114Z,73.30
2022-10-29T07:50:18.724Z,73.30
2022-10-29T07:52:45.353Z,73.40
2022-10-29T07:55:13.780Z,73.40
2022-10-29T07:57:40.401Z,73.60
2022-10-29T08:00:07.755Z,73.60
2022-10-29T08:02:39.334Z,73.50
2022-10-29T08:05:06.226Z,73.40
2022-10-29T08:07:32.818Z,73.30
2022-10-29T08:10:01.601Z,73.20
2022-10-29T08:12:28.248Z,73.10
2022-10-29T08:14:54.842Z,73.00
2022-10-29T08:17:21.434Z,72.80
2022-10-29T08:19:50.214Z,72.70
2022-10-29T08:22:20.265Z,72.50
2022-10-29T08:24:47.541Z,72.40
2022-10-29T08:27:14.194Z,72.30
2022-10-29T08:29:40.799Z,72.20
2022-10-29T08:32:07.642Z,72.20
2022-10-29T08:34:34.227Z,72.10
2022-10-29T08:37:08.759Z,72.10
2022-10-29T08:39:36.065Z,72.10
2022-10-29T08:42:27.387Z,72.00
2022-10-29T08:45:23.384Z,72.10
2022-10-29T08:48:09.431Z,72.00
2022-10-29T08:50:45.644Z,72.00
2022-10-29T08:53:28.652Z,71.80
2022-10-29T08:55:58.424Z,71.80
2022-10-29T08:58:50.387Z,71.70
2022-10-29T09:01:18.638Z,72.00
2022-10-29T09:03:45.347Z,71.80
2022-10-29T09:06:22.711Z,71.80
2022-10-29T09:09:08.812Z,71.90
2022-10-29T09:11:44.503Z,71.80
2022-10-29T09:14:44.097Z,71.70
2022-10-29T09:17:38.648Z,71.80
2022-10-29T09:20:50.924Z,71.80
2022-10-29T09:23:25.336Z,71.90
2022-10-29T09:26:25.251Z,71.60
2022-10-29T09:29:06.524Z,71.60
2022-10-29T09:31:50.839Z,71.50
2022-10-29T09:34:29.920Z,71.20
2022-10-29T09:36:57.770Z,70.80
2022-10-29T09:39:36.999Z,70.60
2022-10-29T09:42:11.328Z,70.70
2022-10-29T09:44:51.238Z,70.60
2022-10-29T09:47:32.875Z,70.50
2022-10-29T09:50:09.273Z,70.50
2022-10-29T09:52:40.418Z,70.70
2022-10-29T09:55:25.362Z,70.70
2022-10-29T09:57:52.881Z,70.80
2022-10-29T10:00:26.339Z,70.90
2022-10-29T10:03:29.783Z,71.00
2022-10-29T10:05:57.906Z,71.10
2022-10-29T10:08:29.004Z,71.10
2022-10-29T10:11:05.150Z,71.20
2022-10-29T10:13:51.349Z,71.40
2022-10-29T10:16:27.869Z,71.40
2022-10-29T10:18:54.499Z,71.40
2022-10-29T10:21:25.804Z,71.20
2022-10-29T10:23:57.440Z,71.00
2022-10-29T10:26:43.226Z,70.70
2022-10-29T10:29:16.573Z,70.20
2022-10-29T10:32:03.427Z,70.00
2022-10-29T10:34:38.827Z,69.90
2022-10-29T10:37:18.689Z,69.60
2022-10-29T10:39:49.909Z,69.70
2022-10-29T10:42:25.105Z,69.30
2022-10-29T10:45:00.996Z,69.40
2022-10-29T10:47:34.631Z,69.40
2022-10-29T10:50:33.860Z,69.30
2022-10-29T10:53:17.605Z,69.20
2022-10-29T10:56:00.380Z,69.30
2022-10-29T10:58:40.347Z,68.80
2022-10-29T11:01:20.159Z,68.80
2022-10-29T11:03:54.790Z,68.70
2022-10-29T11:06:39.648Z,68.70
2022-10-29T11:09:16.482Z,68.30
2022-10-29T11:12:03.933Z,68.30
2022-10-29T11:14:38.530Z,68.50
2022-10-29T11:17:17.044Z,68.50
2022-10-29T11:19:48.927Z,68.00
2022-10-29T11:22:38.124Z,68.10
2022-10-29T11:25:21.753Z,68.00
2022-10-29T11:28:01.229Z,67.80
2022-10-29T11:30:31.834Z,68.20
2022-10-29T11:33:11.218Z,67.80
2022-10-29T11:36:00.529Z,67.70
2022-10-29T11:38:33.839Z,67.40
2022-10-29T11:41:21.926Z,67.50
2022-10-29T11:43:53.995Z,67.40
2022-10-29T11:46:42.457Z,67.40
2022-10-29T11:49:49.280Z,67.50
2022-10-29T11:52:49.959Z,67.60
2022-10-29T11:55:28.537Z,67.10
2022-10-29T11:58:07.641Z,67.30
2022-10-29T12:00:54.112Z,67.10
2022-10-29T12:03:30.035Z,66.70
2022-10-29T12:06:15.334Z,66.80
2022-10-29T12:09:12.979Z,66.70
2022-10-29T12:12:00.275Z,66.50
2022-10-29T12:14:33.655Z,66.50
2022-10-29T12:17:15.119Z,66.40
2022-10-29T12:23:09.162Z,65.90
2022-10-29T12:26:12.737Z,65.40
2022-10-29T12:28:44.604Z,65.60
2022-10-29T12:31:55.836Z,65.70
2022-10-29T12:34:44.948Z,65.50
2022-10-29T12:37:32.711Z,65.70
2022-10-29T12:40:11.362Z,65.40
2022-10-29T12:42:39.673Z,65.20
2022-10-29T12:45:39.985Z,65.20
2022-10-29T12:48:40.872Z,65.00
2022-10-29T12:51:21.084Z,64.80
2022-10-29T12:54:34.385Z,64.60
2022-10-29T12:57:28.665Z,64.20
2022-10-29T13:00:25.554Z,63.80
2022-10-29T13:02:56.191Z,63.10
2022-10-29T13:05:44.013Z,63.50
2022-10-29T13:08:29.842Z,63.50
2022-10-29T13:10:57.310Z,63.10
2022-10-29T13:13:41.156Z,63.00
2022-10-29T13:16:20.216Z,62.50
2022-10-29T13:19:15.586Z,61.70
2022-10-29T13:22:19.743Z,61.60
2022-10-29T13:25:27.550Z,61.70
2022-10-29T13:27:57.252Z,61.20
2022-10-29T13:30:25.620Z,61.40
2022-10-29T13:32:59.016Z,61.40
2022-10-29T13:35:31.830Z,60.80
2022-10-29T13:38:12.845Z,60.80
2022-10-29T13:40:41.793Z,59.50
2022-10-29T13:43:18.757Z,59.90
2022-10-29T13:46:03.651Z,59.50
2022-10-29T13:48:41.245Z,59.30
2022-10-29T13:51:13.268Z,59.30
2022-10-29T13:53:55.435Z,59.60
2022-10-29T13:56:58.133Z,59.40
2022-10-29T13:59:41.420Z,59.20
2022-10-29T14:02:39.031Z,59.90
2022-10-29T14:05:17.005Z,60.10
2022-10-29T14:08:28.228Z,60.20
2022-10-29T14:11:02.849Z,60.40
2022-10-29T14:13:47.172Z,60.80
2022-10-29T14:16:22.721Z,61.10
2022-10-29T14:18:53.110Z,61.20
2022-10-29T14:21:45.864Z,61.40
2022-10-29T14:24:15.988Z,61.30
2022-10-29T14:26:45.995Z,61.60
2022-10-29T14:29:26.158Z,61.60
2022-10-29T14:32:22.353Z,61.70
2022-10-29T14:34:52.403Z,61.70
2022-10-29T14:37:41.102Z,62.00
2022-10-29T14:40:21.969Z,62.10
2022-10-29T14:42:57.437Z,62.40
2022-10-29T14:45:30.344Z,62.70
2022-10-29T14:48:09.509Z,63.10
2022-10-29T14:50:48.854Z,63.00
2022-10-29T14:53:36.745Z,63.00
2022-10-29T14:56:11.248Z,62.90
2022-10-29T14:58:38.497Z,63.20
2022-10-29T15:01:09.764Z,63.30
2022-10-29T15:03:37.108Z,63.50
2022-10-29T15:06:21.000Z,63.60
2022-10-29T15:08:59.623Z,63.60
2022-10-29T15:11:35.659Z,63.90
2022-10-29T15:14:11.319Z,63.60
2022-10-29T15:16:42.424Z,63.60
2022-10-29T15:19:15.015Z,64.00
2022-10-29T15:21:44.080Z,64.20
2022-10-29T15:24:20.395Z,64.10
2022-10-29T15:26:57.456Z,64.20
2022-10-29T15:29:33.178Z,64.50
2022-10-29T15:32:00.848Z,64.50
2022-10-29T15:34:37.723Z,64.60
2022-10-29T15:37:30.765Z,64.60
2022-10-29T15:39:57.556Z,64.60
2022-10-29T15:42:34.762Z,64.60
2022-10-29T15:45:07.435Z,64.70
2022-10-29T15:47:36.087Z,64.90
2022-10-29T15:50:10.799Z,64.90
2022-10-29T15:52:43.672Z,65.10
2022-10-29T15:55:22.099Z,65.20
2022-10-29T15:57:53.035Z,65.30
2022-10-29T16:00:22.530Z,65.20
2022-10-29T16:02:51.177Z,65.40
2022-10-29T16:05:20.232Z,65.40
2022-10-29T16:07:49.866Z,65.60
2022-10-29T16:10:21.815Z,65.60
2022-10-29T16:12:49.993Z,65.70
2022-10-29T16:15:19.276Z,65.80
2022-10-29T16:17:46.770Z,65.90
2022-10-29T16:20:19.901Z,66.60
2022-10-29T16:22:49.307Z,66.30
2022-10-29T16:25:25.369Z,66.30
2022-10-29T16:27:56.963Z,66.70
2022-10-29T16:30:28.673Z,66.50
2022-10-29T16:32:55.858Z,66.80
2022-10-29T16:35:33.244Z,66.90
2022-10-29T16:38:03.561Z,67.00
2022-10-29T16:40:43.236Z,67.00
2022-10-29T16:43:09.980Z,67.10
2022-10-29T16:45:37.243Z,67.30
2022-10-29T16:48:04.136Z,67.30
2022-10-29T16:50:36.989Z,67.80
2022-10-29T16:53:09.275Z,67.70
2022-10-29T16:55:38.870Z,68.20
2022-10-29T16:58:16.597Z,68.00
2022-10-29T17:00:46.386Z,68.40
2022-10-29T17:03:16.534Z,68.40
2022-10-29T17:05:45.534Z,68.50
2022-10-29T17:08:12.565Z,68.60
2022-10-29T17:10:39.535Z,68.80
2022-10-29T17:13:07.157Z,68.90
2022-10-29T17:15:36.200Z,69.00
2022-10-29T17:18:08.466Z,69.00
2022-10-29T17:20:35.003Z,68.90
2022-10-29T17:23:01.641Z,68.80
2022-10-29T17:25:28.284Z,68.60
2022-10-29T17:28:02.487Z,68.70
2022-10-29T17:30:29.116Z,68.80
2022-10-29T17:32:56.126Z,68.80
2022-10-29T17:35:27.928Z,68.80
2022-10-29T17:37:59.612Z,68.80
2022-10-29T17:40:27.032Z,68.80
2022-10-29T17:42:55.018Z,68.70
2022-10-29T17:45:28.110Z,68.70
2022-10-29T17:47:59.456Z,68.70
2022-10-29T17:50:30.817Z,68.70
2022-10-29T17:53:00.125Z,68.60
2022-10-29T17:55:27.597Z,68.70
2022-10-29T17:58:01.009Z,68.60
2022-10-29T18:00:36.184Z,68.60
2022-10-29T18:03:09.019Z,68.50
2022-10-29T18:05:36.887Z,68.40
2022-10-29T18:08:03.754Z,68.50
2022-10-29T18:10:32.502Z,68.60
2022-10-29T18:12:59.087Z,68.60
2022-10-29T18:15:26.068Z,68.70
2022-10-29T18:20:27.580Z,68.70
2022-10-29T18:22:59.992Z,68.80
2022-10-29T18:25:29.061Z,68.80
2022-10-29T18:28:01.378Z,68.90
2022-10-29T18:30:28.027Z,68.90
2022-10-29T18:32:57.266Z,68.90
2022-10-29T18:35:28.896Z,68.70
2022-10-29T18:37:57.272Z,69.30
2022-10-29T18:40:24.045Z,68.80
2022-10-29T18:42:53.002Z,68.70
2022-10-29T18:45:22.961Z,68.90
2022-10-29T18:47:50.775Z,68.90
2022-10-29T18:50:17.399Z,68.80
2022-10-29T18:52:52.273Z,68.80
2022-10-29T18:55:18.923Z,68.80
2022-10-29T18:57:47.978Z,68.80
2022-10-29T19:00:16.352Z,68.80
2022-10-29T19:02:52.573Z,68.80
2022-10-29T19:05:19.183Z,68.90
2022-10-29T19:07:49.619Z,69.00
2022-10-29T19:10:17.494Z,69.10
2022-10-29T19:12:44.114Z,69.20
2022-10-29T19:15:11.068Z,69.20
2022-10-29T19:17:44.718Z,69.40
2022-10-29T19:20:16.308Z,69.50
2022-10-29T19:22:43.067Z,69.50
2022-10-29T19:25:09.672Z,69.30
2022-10-29T19:27:36.298Z,69.40
2022-10-29T19:30:06.041Z,69.40
2022-10-29T19:32:37.599Z,69.40
2022-10-29T19:35:06.834Z,69.30
2022-10-29T19:37:35.809Z,69.30
2022-10-29T19:40:05.181Z,69.20
2022-10-29T19:42:33.257Z,69.30
2022-10-29T19:44:59.887Z,69.30
2022-10-29T19:47:29.021Z,69.30
2022-10-29T19:50:01.429Z,69.20
2022-10-29T19:52:28.075Z,69.30
2022-10-29T19:54:58.752Z,69.20
2022-10-29T19:57:26.620Z,69.20
2022-10-29T20:00:00.068Z,68.90
2022-10-29T20:02:31.106Z,69.00
2022-10-29T20:04:57.834Z,68.90
2022-10-29T20:07:26.981Z,68.80
2022-10-29T20:09:55.806Z,68.80
2022-10-29T20:12:24.806Z,68.70
2022-10-29T20:14:53.546Z,68.50
2022-10-29T20:17:21.394Z,68.40
2022-10-29T20:19:48.059Z,68.40
2022-10-29T20:22:16.904Z,68.30
2022-10-29T20:24:45.947Z,68.20
2022-10-29T20:27:17.450Z,68.30
2022-10-29T20:29:45.095Z,68.30
2022-10-29T20:32:14.218Z,68.30
2022-10-29T20:34:40.937Z,68.40
2022-10-29T20:37:09.830Z,68.40
2022-10-29T20:39:36.616Z,68.40
2022-10-29T20:42:03.386Z,68.50
2022-10-29T20:44:30.056Z,68.60
2022-10-29T20:46:56.680Z,68.60
2022-10-29T20:49:23.412Z,68.50
2022-10-29T20:51:52.516Z,68.60
2022-10-29T20:54:19.138Z,68.60
2022-10-29T20:56:47.873Z,68.60
2022-10-29T20:59:14.785Z,68.60
2022-10-29T21:01:41.519Z,68.60
2022-10-29T21:04:08.213Z,68.70
2022-10-29T21:06:38.611Z,68.80
2022-10-29T21:09:07.008Z,69.00
2022-10-29T21:11:37.615Z,69.00
2022-10-29T21:14:05.949Z,69.00
2022-10-29T21:16:37.053Z,69.00
2022-10-29T21:19:11.136Z,69.00
2022-10-29T21:21:41.393Z,69.10
2022-10-29T21:24:08.167Z,69.00
2022-10-29T21:26:37.435Z,69.00
2022-10-29T21:29:05.251Z,69.10
2022-10-29T21:31:33.018Z,69.10
2022-10-29T21:33:59.633Z,69.10
2022-10-29T21:36:29.023Z,69.10
2022-10-29T21:38:55.655Z,69.10
2022-10-29T21:41:24.989Z,69.00
2022-10-29T21:43:51.685Z,69.00
2022-10-29T21:46:18.275Z,69.10
2022-10-29T21:48:44.862Z,69.00
2022-10-29T21:51:17.637Z,69.00
2022-10-29T21:53:44.379Z,69.00
2022-10-29T21:56:13.914Z,69.00
2022-10-29T21:58:41.060Z,69.00
2022-10-29T22:01:16.084Z,69.00
2022-10-29T22:03:46.383Z,69.10
2022-10-29T22:06:21.135Z,69.00
2022-10-29T22:08:54.116Z,69.00
2022-10-29T22:11:23.457Z,69.10
2022-10-29T22:13:55.482Z,69.10
2022-10-29T22:16:22.543Z,69.20
2022-10-29T22:18:53.413Z,69.20
2022-10-29T22:21:25.904Z,69.90
2022-10-29T22:23:54.279Z,69.40
2022-10-29T22:26:26.848Z,69.40
2022-10-29T22:28:55.711Z,69.10
2022-10-29T22:31:29.962Z,69.10
2022-10-29T22:33:56.702Z,69.20
2022-10-29T22:36:25.477Z,69.30
2022-10-29T22:39:03.184Z,69.30
2022-10-29T22:41:30.526Z,69.40
2022-10-29T22:43:58.969Z,69.40
2022-10-29T22:46:27.117Z,69.50
2022-10-29T22:49:02.430Z,69.60
2022-10-29T22:51:32.186Z,69.70
2022-10-29T22:54:00.962Z,69.70
2022-10-29T22:56:32.652Z,69.60
2022-10-29T22:59:02.113Z,69.70
2022-10-29T23:01:38.757Z,69.60
2022-10-29T23:04:09.022Z,69.70
2022-10-29T23:06:38.572Z,69.60
2022-10-29T23:09:07.772Z,69.60
2022-10-29T23:11:39.269Z,69.70
2022-10-29T23:14:06.053Z,69.70
2022-10-29T23:16:35.999Z,69.70
2022-10-29T23:19:07.960Z,69.70
2022-10-29T23:21:39.229Z,69.70
2022-10-29T23:24:06.076Z,69.70
2022-10-29T23:26:32.720Z,69.80
2022-10-29T23:29:05.251Z,69.70
2022-10-29T23:31:32.231Z,69.80
2022-10-29T23:33:59.219Z,69.70
2022-10-29T23:36:27.143Z,69.80
2022-10-29T23:38:57.908Z,69.80
2022-10-29T23:41:31.227Z,69.80
2022-10-29T23:43:58.187Z,69.90
2022-10-29T23:46:31.310Z,69.90
2022-10-29T23:49:02.322Z,69.80
2022-10-29T23:53:59.477Z,69.80
2022-10-29T23:56:26.291Z,69.80
2022-10-29T23:58:58.259Z,69.70
